Main page
METAR-TAF:

METAR-TAF

Airports :

Syros Island National Airport

Syros, Greece

latitude: 37-25-16N, longitude: 024-56-54E, elevation: 73 m

Current weather observation

The report was made 43 minutes ago, at 09:50 UTC
Wind 10 kt from the North/Northwest
Temperature 32°C
Humidity 41%
Pressure 1006 hPa
Visibility 10 km or more
Few clouds at a height of 2000 ft

METAR: LGSO 180950Z 34010KT 9999 FEW020 32/17 Q1006

Time: 13:33 (10:33 UTC)


TAF: missing

Weather observations and forecasts of more than 4000 airports (METAR and TAF reports).

The available stations are represented by yellow and red dots on the map.

Hover mouse over dot to see the name of the station.

Then click to see weather observations and forecasts.

To change the map : click on the green buttons with a black cross to zoom in, on the green button with a dash to zoom out, or on the green arrows for adjacent maps.


METAR-TAF: